sensor_id;sensor_type;location;lat;lon;timestamp;P1;durP1;ratioP1;P2;durP2;ratioP2
42168;SDS011;27838;43.858;25.974;2023-10-13T00:00:32;14.18;;;4.45;;
42168;SDS011;27838;43.858;25.974;2023-10-13T00:03:01;11.73;;;4.70;;
42168;SDS011;27838;43.858;25.974;2023-10-13T00:05:29;11.75;;;4.30;;
42168;SDS011;27838;43.858;25.974;2023-10-13T00:08:00;12.07;;;4.40;;
42168;SDS011;27838;43.858;25.974;2023-10-13T00:10:30;9.40;;;3.93;;
42168;SDS011;27838;43.858;25.974;2023-10-13T00:12:57;10.45;;;4.05;;
42168;SDS011;27838;43.858;25.974;2023-10-13T00:15:43;6.70;;;4.78;;
42168;SDS011;27838;43.858;25.974;2023-10-13T00:18:23;31.00;;;6.95;;
42168;SDS011;27838;43.858;25.974;2023-10-13T00:20:58;22.50;;;5.95;;
42168;SDS011;27838;43.858;25.974;2023-10-13T00:23:25;52.13;;;10.05;;
42168;SDS011;27838;43.858;25.974;2023-10-13T00:25:52;56.00;;;10.00;;
42168;SDS011;27838;43.858;25.974;2023-10-13T00:28:27;32.53;;;6.10;;
42168;SDS011;27838;43.858;25.974;2023-10-13T00:31:00;18.33;;;4.63;;
42168;SDS011;27838;43.858;25.974;2023-10-13T00:33:36;35.60;;;7.55;;
42168;SDS011;27838;43.858;25.974;2023-10-13T00:36:04;15.48;;;4.60;;
42168;SDS011;27838;43.858;25.974;2023-10-13T00:38:32;24.42;;;5.57;;
42168;SDS011;27838;43.858;25.974;2023-10-13T00:41:00;17.52;;;5.05;;
42168;SDS011;27838;43.858;25.974;2023-10-13T00:43:43;20.15;;;4.70;;
42168;SDS011;27838;43.858;25.974;2023-10-13T00:46:28;11.38;;;4.15;;
42168;SDS011;27838;43.858;25.974;2023-10-13T00:48:58;18.98;;;4.55;;
42168;SDS011;27838;43.858;25.974;2023-10-13T00:51:25;18.45;;;6.00;;
42168;SDS011;27838;43.858;25.974;2023-10-13T00:53:58;17.15;;;4.50;;
42168;SDS011;27838;43.858;25.974;2023-10-13T00:56:27;18.33;;;4.63;;
42168;SDS011;27838;43.858;25.974;2023-10-13T00:58:55;17.38;;;4.65;;
42168;SDS011;27838;43.858;25.974;2023-10-13T01:01:23;15.38;;;4.43;;
42168;SDS011;27838;43.858;25.974;2023-10-13T01:06:24;10.68;;;5.13;;
42168;SDS011;27838;43.858;25.974;2023-10-13T01:11:41;9.15;;;4.35;;
42168;SDS011;27838;43.858;25.974;2023-10-13T01:14:10;11.52;;;5.13;;
42168;SDS011;27838;43.858;25.974;2023-10-13T01:16:40;12.25;;;5.10;;
42168;SDS011;27838;43.858;25.974;2023-10-13T01:19:09;20.13;;;5.55;;
42168;SDS011;27838;43.858;25.974;2023-10-13T01:21:37;13.55;;;4.45;;
42168;SDS011;27838;43.858;25.974;2023-10-13T01:24:06;23.48;;;4.97;;
42168;SDS011;27838;43.858;25.974;2023-10-13T01:26:34;18.38;;;4.82;;
42168;SDS011;27838;43.858;25.974;2023-10-13T01:29:04;27.10;;;6.47;;
42168;SDS011;27838;43.858;25.974;2023-10-13T01:31:38;24.00;;;5.93;;
42168;SDS011;27838;43.858;25.974;2023-10-13T01:34:11;12.88;;;4.80;;
42168;SDS011;27838;43.858;25.974;2023-10-13T01:36:39;11.77;;;4.78;;
42168;SDS011;27838;43.858;25.974;2023-10-13T01:39:06;20.45;;;5.65;;
42168;SDS011;27838;43.858;25.974;2023-10-13T01:41:41;19.48;;;5.78;;
42168;SDS011;27838;43.858;25.974;2023-10-13T01:44:08;18.17;;;5.93;;
42168;SDS011;27838;43.858;25.974;2023-10-13T01:46:36;25.25;;;6.30;;
42168;SDS011;27838;43.858;25.974;2023-10-13T01:49:03;20.42;;;5.75;;
42168;SDS011;27838;43.858;25.974;2023-10-13T01:51:29;17.20;;;4.63;;
42168;SDS011;27838;43.858;25.974;2023-10-13T01:53:55;19.35;;;5.65;;
42168;SDS011;27838;43.858;25.974;2023-10-13T01:56:23;11.48;;;4.57;;
42168;SDS011;27838;43.858;25.974;2023-10-13T01:58:49;15.80;;;4.82;;
42168;SDS011;27838;43.858;25.974;2023-10-13T02:01:15;25.77;;;4.60;;
42168;SDS011;27838;43.858;25.974;2023-10-13T02:03:51;14.98;;;4.68;;
42168;SDS011;27838;43.858;25.974;2023-10-13T02:06:28;12.23;;;4.22;;
42168;SDS011;27838;43.858;25.974;2023-10-13T02:09:05;7.90;;;4.13;;
42168;SDS011;27838;43.858;25.974;2023-10-13T02:11:39;12.82;;;4.57;;
42168;SDS011;27838;43.858;25.974;2023-10-13T02:14:06;18.73;;;4.80;;
42168;SDS011;27838;43.858;25.974;2023-10-13T02:16:36;16.92;;;4.57;;
42168;SDS011;27838;43.858;25.974;2023-10-13T02:19:01;16.60;;;4.55;;
42168;SDS011;27838;43.858;25.974;2023-10-13T02:21:32;16.52;;;5.45;;
42168;SDS011;27838;43.858;25.974;2023-10-13T02:24:05;32.20;;;6.70;;
42168;SDS011;27838;43.858;25.974;2023-10-13T02:26:39;24.65;;;6.43;;
42168;SDS011;27838;43.858;25.974;2023-10-13T02:29:06;30.52;;;6.78;;
42168;SDS011;27838;43.858;25.974;2023-10-13T02:31:36;24.27;;;6.55;;
42168;SDS011;27838;43.858;25.974;2023-10-13T02:34:05;20.65;;;5.53;;
42168;SDS011;27838;43.858;25.974;2023-10-13T02:36:37;24.20;;;6.18;;
42168;SDS011;27838;43.858;25.974;2023-10-13T02:39:12;36.00;;;6.18;;
42168;SDS011;27838;43.858;25.974;2023-10-13T02:41:40;23.92;;;5.70;;
42168;SDS011;27838;43.858;25.974;2023-10-13T02:44:06;23.27;;;6.30;;
42168;SDS011;27838;43.858;25.974;2023-10-13T02:46:35;20.10;;;5.70;;
42168;SDS011;27838;43.858;25.974;2023-10-13T02:49:04;29.45;;;6.35;;
42168;SDS011;27838;43.858;25.974;2023-10-13T02:51:36;16.80;;;5.38;;
42168;SDS011;27838;43.858;25.974;2023-10-13T02:54:05;22.60;;;5.28;;
42168;SDS011;27838;43.858;25.974;2023-10-13T02:56:35;16.23;;;4.53;;
42168;SDS011;27838;43.858;25.974;2023-10-13T02:59:01;13.30;;;6.45;;
42168;SDS011;27838;43.858;25.974;2023-10-13T03:01:31;18.08;;;5.18;;
42168;SDS011;27838;43.858;25.974;2023-10-13T03:03:59;15.23;;;5.15;;
42168;SDS011;27838;43.858;25.974;2023-10-13T03:06:27;20.65;;;4.38;;
42168;SDS011;27838;43.858;25.974;2023-10-13T03:08:57;5.30;;;3.30;;
42168;SDS011;27838;43.858;25.974;2023-10-13T03:11:39;5.90;;;2.63;;
42168;SDS011;27838;43.858;25.974;2023-10-13T03:14:10;8.27;;;2.92;;
42168;SDS011;27838;43.858;25.974;2023-10-13T03:16:49;6.15;;;2.72;;
42168;SDS011;27838;43.858;25.974;2023-10-13T03:19:18;5.93;;;3.03;;
42168;SDS011;27838;43.858;25.974;2023-10-13T03:21:45;11.50;;;3.10;;
42168;SDS011;27838;43.858;25.974;2023-10-13T03:24:20;6.40;;;3.25;;
42168;SDS011;27838;43.858;25.974;2023-10-13T03:26:58;9.52;;;2.92;;
42168;SDS011;27838;43.858;25.974;2023-10-13T03:29:37;16.27;;;3.42;;
42168;SDS011;27838;43.858;25.974;2023-10-13T03:32:09;5.72;;;3.20;;
42168;SDS011;27838;43.858;25.974;2023-10-13T03:34:43;6.80;;;3.45;;
42168;SDS011;27838;43.858;25.974;2023-10-13T03:37:36;6.38;;;3.10;;
42168;SDS011;27838;43.858;25.974;2023-10-13T03:40:07;4.72;;;2.88;;
42168;SDS011;27838;43.858;25.974;2023-10-13T03:42:57;8.80;;;2.72;;
42168;SDS011;27838;43.858;25.974;2023-10-13T03:45:29;12.73;;;3.17;;
42168;SDS011;27838;43.858;25.974;2023-10-13T03:48:01;7.18;;;3.60;;
42168;SDS011;27838;43.858;25.974;2023-10-13T03:50:34;11.75;;;4.10;;
42168;SDS011;27838;43.858;25.974;2023-10-13T03:53:01;8.48;;;3.80;;
42168;SDS011;27838;43.858;25.974;2023-10-13T03:55:31;8.88;;;4.03;;
42168;SDS011;27838;43.858;25.974;2023-10-13T03:58:00;7.05;;;3.30;;
42168;SDS011;27838;43.858;25.974;2023-10-13T04:00:29;10.70;;;3.35;;
42168;SDS011;27838;43.858;25.974;2023-10-13T04:02:57;7.40;;;4.18;;
42168;SDS011;27838;43.858;25.974;2023-10-13T04:05:34;10.65;;;3.17;;
42168;SDS011;27838;43.858;25.974;2023-10-13T04:08:10;12.23;;;4.13;;
42168;SDS011;27838;43.858;25.974;2023-10-13T04:10:55;18.88;;;5.28;;
42168;SDS011;27838;43.858;25.974;2023-10-13T04:13:39;10.82;;;3.45;;
42168;SDS011;27838;43.858;25.974;2023-10-13T04:16:23;6.50;;;3.38;;
42168;SDS011;27838;43.858;25.974;2023-10-13T04:19:02;10.93;;;3.50;;
42168;SDS011;27838;43.858;25.974;2023-10-13T04:21:44;6.53;;;3.47;;
42168;SDS011;27838;43.858;25.974;2023-10-13T04:24:22;12.77;;;3.28;;
42168;SDS011;27838;43.858;25.974;2023-10-13T04:27:03;14.07;;;2.95;;
42168;SDS011;27838;43.858;25.974;2023-10-13T04:30:04;5.20;;;2.97;;
42168;SDS011;27838;43.858;25.974;2023-10-13T04:32:36;8.65;;;3.25;;
42168;SDS011;27838;43.858;25.974;2023-10-13T04:35:11;6.82;;;3.35;;
42168;SDS011;27838;43.858;25.974;2023-10-13T04:37:43;8.80;;;3.20;;
42168;SDS011;27838;43.858;25.974;2023-10-13T04:40:19;10.63;;;3.20;;
42168;SDS011;27838;43.858;25.974;2023-10-13T04:42:49;6.90;;;3.20;;
42168;SDS011;27838;43.858;25.974;2023-10-13T04:45:21;7.97;;;4.13;;
42168;SDS011;27838;43.858;25.974;2023-10-13T04:48:04;11.55;;;3.67;;
42168;SDS011;27838;43.858;25.974;2023-10-13T04:50:46;12.38;;;3.58;;
42168;SDS011;27838;43.858;25.974;2023-10-13T04:53:17;17.42;;;3.20;;
42168;SDS011;27838;43.858;25.974;2023-10-13T04:55:57;11.68;;;3.20;;
42168;SDS011;27838;43.858;25.974;2023-10-13T04:58:53;8.43;;;3.38;;
42168;SDS011;27838;43.858;25.974;2023-10-13T05:01:37;10.50;;;3.45;;
42168;SDS011;27838;43.858;25.974;2023-10-13T05:04:47;7.30;;;3.53;;
42168;SDS011;27838;43.858;25.974;2023-10-13T05:07:34;12.63;;;4.35;;
42168;SDS011;27838;43.858;25.974;2023-10-13T05:10:18;8.70;;;3.35;;
42168;SDS011;27838;43.858;25.974;2023-10-13T05:13:02;6.82;;;3.15;;
42168;SDS011;27838;43.858;25.974;2023-10-13T05:15:49;9.25;;;3.35;;
42168;SDS011;27838;43.858;25.974;2023-10-13T05:18:34;5.93;;;2.78;;
42168;SDS011;27838;43.858;25.974;2023-10-13T05:21:19;7.45;;;3.75;;
42168;SDS011;27838;43.858;25.974;2023-10-13T05:24:03;12.93;;;3.40;;
42168;SDS011;27838;43.858;25.974;2023-10-13T05:26:48;10.10;;;3.55;;
42168;SDS011;27838;43.858;25.974;2023-10-13T05:29:33;6.57;;;3.13;;
42168;SDS011;27838;43.858;25.974;2023-10-13T05:32:19;8.52;;;3.15;;
42168;SDS011;27838;43.858;25.974;2023-10-13T05:35:04;30.08;;;18.05;;
42168;SDS011;27838;43.858;25.974;2023-10-13T05:37:48;32.08;;;9.50;;
42168;SDS011;27838;43.858;25.974;2023-10-13T05:40:33;13.07;;;4.38;;
42168;SDS011;27838;43.858;25.974;2023-10-13T05:43:13;21.27;;;10.57;;
42168;SDS011;27838;43.858;25.974;2023-10-13T05:46:01;30.30;;;18.75;;
42168;SDS011;27838;43.858;25.974;2023-10-13T05:48:42;22.40;;;14.65;;
42168;SDS011;27838;43.858;25.974;2023-10-13T05:51:34;17.80;;;10.13;;
42168;SDS011;27838;43.858;25.974;2023-10-13T05:54:09;16.60;;;10.75;;
42168;SDS011;27838;43.858;25.974;2023-10-13T05:56:54;10.63;;;5.47;;
42168;SDS011;27838;43.858;25.974;2023-10-13T05:59:38;10.90;;;4.13;;
42168;SDS011;27838;43.858;25.974;2023-10-13T06:02:22;12.43;;;3.75;;
42168;SDS011;27838;43.858;25.974;2023-10-13T06:05:08;10.10;;;3.63;;
42168;SDS011;27838;43.858;25.974;2023-10-13T06:07:54;6.60;;;4.10;;
42168;SDS011;27838;43.858;25.974;2023-10-13T06:10:39;9.57;;;3.42;;
42168;SDS011;27838;43.858;25.974;2023-10-13T06:13:23;13.27;;;6.72;;
42168;SDS011;27838;43.858;25.974;2023-10-13T06:16:15;22.88;;;10.52;;
42168;SDS011;27838;43.858;25.974;2023-10-13T06:18:59;34.03;;;19.13;;
42168;SDS011;27838;43.858;25.974;2023-10-13T06:21:44;27.88;;;17.38;;
42168;SDS011;27838;43.858;25.974;2023-10-13T06:24:29;20.85;;;10.50;;
42168;SDS011;27838;43.858;25.974;2023-10-13T06:27:13;15.95;;;10.50;;
42168;SDS011;27838;43.858;25.974;2023-10-13T06:29:58;15.40;;;5.03;;
42168;SDS011;27838;43.858;25.974;2023-10-13T06:32:25;7.32;;;4.25;;
42168;SDS011;27838;43.858;25.974;2023-10-13T06:34:53;23.45;;;9.75;;
42168;SDS011;27838;43.858;25.974;2023-10-13T06:37:23;15.43;;;10.10;;
42168;SDS011;27838;43.858;25.974;2023-10-13T06:39:56;16.77;;;8.48;;
42168;SDS011;27838;43.858;25.974;2023-10-13T06:42:30;10.85;;;3.00;;
42168;SDS011;27838;43.858;25.974;2023-10-13T06:44:59;8.48;;;5.22;;
42168;SDS011;27838;43.858;25.974;2023-10-13T06:47:33;13.63;;;4.25;;
42168;SDS011;27838;43.858;25.974;2023-10-13T06:52:40;12.90;;;3.65;;
42168;SDS011;27838;43.858;25.974;2023-10-13T06:55:11;10.32;;;3.40;;
42168;SDS011;27838;43.858;25.974;2023-10-13T06:57:42;14.95;;;3.67;;
42168;SDS011;27838;43.858;25.974;2023-10-13T07:00:12;10.88;;;3.47;;
42168;SDS011;27838;43.858;25.974;2023-10-13T07:02:45;11.95;;;4.15;;
42168;SDS011;27838;43.858;25.974;2023-10-13T07:05:13;16.02;;;3.83;;
42168;SDS011;27838;43.858;25.974;2023-10-13T07:07:40;17.17;;;4.15;;
42168;SDS011;27838;43.858;25.974;2023-10-13T07:10:10;19.50;;;4.38;;
42168;SDS011;27838;43.858;25.974;2023-10-13T07:12:38;16.95;;;5.00;;
42168;SDS011;27838;43.858;25.974;2023-10-13T07:15:08;14.90;;;5.05;;
42168;SDS011;27838;43.858;25.974;2023-10-13T07:17:45;11.57;;;4.28;;
42168;SDS011;27838;43.858;25.974;2023-10-13T07:20:19;28.52;;;13.07;;
42168;SDS011;27838;43.858;25.974;2023-10-13T07:22:50;44.78;;;27.02;;
42168;SDS011;27838;43.858;25.974;2023-10-13T07:25:23;47.10;;;27.83;;
42168;SDS011;27838;43.858;25.974;2023-10-13T07:27:50;17.77;;;10.57;;
42168;SDS011;27838;43.858;25.974;2023-10-13T07:30:19;16.50;;;9.85;;
42168;SDS011;27838;43.858;25.974;2023-10-13T07:32:51;16.90;;;8.93;;
42168;SDS011;27838;43.858;25.974;2023-10-13T07:35:18;15.13;;;5.88;;
42168;SDS011;27838;43.858;25.974;2023-10-13T07:37:50;21.50;;;8.10;;
42168;SDS011;27838;43.858;25.974;2023-10-13T07:40:21;13.48;;;4.68;;
42168;SDS011;27838;43.858;25.974;2023-10-13T07:43:04;19.20;;;10.45;;
42168;SDS011;27838;43.858;25.974;2023-10-13T07:45:36;13.82;;;4.90;;
42168;SDS011;27838;43.858;25.974;2023-10-13T07:48:06;15.23;;;5.13;;
42168;SDS011;27838;43.858;25.974;2023-10-13T07:50:40;20.98;;;6.82;;
42168;SDS011;27838;43.858;25.974;2023-10-13T07:53:07;13.57;;;3.95;;
42168;SDS011;27838;43.858;25.974;2023-10-13T07:55:47;14.93;;;6.07;;
42168;SDS011;27838;43.858;25.974;2023-10-13T07:58:20;12.32;;;7.40;;
42168;SDS011;27838;43.858;25.974;2023-10-13T08:00:49;13.43;;;6.38;;
42168;SDS011;27838;43.858;25.974;2023-10-13T08:03:31;8.73;;;5.95;;
42168;SDS011;27838;43.858;25.974;2023-10-13T08:06:16;12.35;;;5.97;;
42168;SDS011;27838;43.858;25.974;2023-10-13T08:08:51;11.03;;;4.77;;
42168;SDS011;27838;43.858;25.974;2023-10-13T08:11:19;14.02;;;6.18;;
42168;SDS011;27838;43.858;25.974;2023-10-13T08:13:56;12.23;;;5.00;;
42168;SDS011;27838;43.858;25.974;2023-10-13T08:16:36;11.95;;;4.85;;
42168;SDS011;27838;43.858;25.974;2023-10-13T08:19:27;16.75;;;5.85;;
42168;SDS011;27838;43.858;25.974;2023-10-13T08:22:04;26.98;;;9.32;;
42168;SDS011;27838;43.858;25.974;2023-10-13T08:24:48;29.20;;;10.82;;
42168;SDS011;27838;43.858;25.974;2023-10-13T08:27:40;32.05;;;17.08;;
42168;SDS011;27838;43.858;25.974;2023-10-13T08:30:15;23.08;;;8.23;;
42168;SDS011;27838;43.858;25.974;2023-10-13T08:32:53;20.38;;;9.95;;
42168;SDS011;27838;43.858;25.974;2023-10-13T08:35:22;17.95;;;7.00;;
42168;SDS011;27838;43.858;25.974;2023-10-13T08:37:50;15.57;;;6.63;;
42168;SDS011;27838;43.858;25.974;2023-10-13T08:40:29;24.92;;;18.27;;
42168;SDS011;27838;43.858;25.974;2023-10-13T08:43:13;18.92;;;9.98;;
42168;SDS011;27838;43.858;25.974;2023-10-13T08:45:42;18.25;;;6.22;;
42168;SDS011;27838;43.858;25.974;2023-10-13T08:48:23;16.25;;;7.15;;
42168;SDS011;27838;43.858;25.974;2023-10-13T08:50:56;6.80;;;4.93;;
42168;SDS011;27838;43.858;25.974;2023-10-13T08:53:29;16.50;;;7.00;;
42168;SDS011;27838;43.858;25.974;2023-10-13T08:56:02;18.25;;;6.25;;
42168;SDS011;27838;43.858;25.974;2023-10-13T08:58:43;23.67;;;7.30;;
42168;SDS011;27838;43.858;25.974;2023-10-13T09:01:36;15.63;;;6.10;;
42168;SDS011;27838;43.858;25.974;2023-10-13T09:04:17;17.63;;;6.95;;
42168;SDS011;27838;43.858;25.974;2023-10-13T09:12:15;10.73;;;6.20;;
42168;SDS011;27838;43.858;25.974;2023-10-13T09:14:50;16.30;;;5.47;;
42168;SDS011;27838;43.858;25.974;2023-10-13T09:17:23;18.88;;;6.30;;
42168;SDS011;27838;43.858;25.974;2023-10-13T09:20:01;15.10;;;5.55;;
42168;SDS011;27838;43.858;25.974;2023-10-13T09:22:53;15.98;;;4.82;;
42168;SDS011;27838;43.858;25.974;2023-10-13T09:25:33;18.17;;;5.72;;
42168;SDS011;27838;43.858;25.974;2023-10-13T09:28:12;17.83;;;5.28;;
42168;SDS011;27838;43.858;25.974;2023-10-13T09:30:46;9.77;;;5.38;;
42168;SDS011;27838;43.858;25.974;2023-10-13T09:33:21;18.67;;;5.15;;
42168;SDS011;27838;43.858;25.974;2023-10-13T09:35:58;12.70;;;5.10;;
42168;SDS011;27838;43.858;25.974;2023-10-13T09:38:25;12.63;;;5.47;;
42168;SDS011;27838;43.858;25.974;2023-10-13T09:40:53;9.40;;;5.60;;
42168;SDS011;27838;43.858;25.974;2023-10-13T09:43:22;15.38;;;5.97;;
42168;SDS011;27838;43.858;25.974;2023-10-13T09:45:50;14.00;;;5.80;;
42168;SDS011;27838;43.858;25.974;2023-10-13T09:48:33;17.85;;;6.40;;
42168;SDS011;27838;43.858;25.974;2023-10-13T09:51:06;9.70;;;5.72;;
42168;SDS011;27838;43.858;25.974;2023-10-13T09:53:38;20.85;;;6.57;;
42168;SDS011;27838;43.858;25.974;2023-10-13T09:56:15;14.75;;;5.55;;
42168;SDS011;27838;43.858;25.974;2023-10-13T09:59:02;8.68;;;5.35;;
42168;SDS011;27838;43.858;25.974;2023-10-13T10:01:44;14.95;;;5.97;;
42168;SDS011;27838;43.858;25.974;2023-10-13T10:04:15;13.82;;;5.82;;
42168;SDS011;27838;43.858;25.974;2023-10-13T10:06:56;16.85;;;6.38;;
42168;SDS011;27838;43.858;25.974;2023-10-13T10:09:28;13.15;;;6.05;;
42168;SDS011;27838;43.858;25.974;2023-10-13T10:15:08;12.75;;;5.78;;
42168;SDS011;27838;43.858;25.974;2023-10-13T10:17:49;13.48;;;5.30;;
42168;SDS011;27838;43.858;25.974;2023-10-13T10:20:27;13.57;;;6.40;;
42168;SDS011;27838;43.858;25.974;2023-10-13T10:23:07;22.50;;;9.02;;
42168;SDS011;27838;43.858;25.974;2023-10-13T10:25:43;18.05;;;8.13;;
42168;SDS011;27838;43.858;25.974;2023-10-13T10:28:11;16.42;;;7.53;;
42168;SDS011;27838;43.858;25.974;2023-10-13T10:30:41;17.02;;;6.47;;
42168;SDS011;27838;43.858;25.974;2023-10-13T10:33:09;17.75;;;6.03;;
42168;SDS011;27838;43.858;25.974;2023-10-13T10:35:41;10.55;;;5.53;;
42168;SDS011;27838;43.858;25.974;2023-10-13T10:38:13;14.70;;;6.75;;
42168;SDS011;27838;43.858;25.974;2023-10-13T10:40:54;13.82;;;6.53;;
42168;SDS011;27838;43.858;25.974;2023-10-13T10:43:28;12.38;;;6.90;;
42168;SDS011;27838;43.858;25.974;2023-10-13T10:46:28;16.75;;;8.68;;
42168;SDS011;27838;43.858;25.974;2023-10-13T10:49:03;18.75;;;7.43;;
42168;SDS011;27838;43.858;25.974;2023-10-13T10:51:33;24.93;;;8.17;;
42168;SDS011;27838;43.858;25.974;2023-10-13T10:54:17;21.08;;;8.40;;
42168;SDS011;27838;43.858;25.974;2023-10-13T10:56:45;14.00;;;5.10;;
42168;SDS011;27838;43.858;25.974;2023-10-13T10:59:18;17.95;;;6.15;;
42168;SDS011;27838;43.858;25.974;2023-10-13T11:01:47;18.30;;;5.50;;
42168;SDS011;27838;43.858;25.974;2023-10-13T11:04:16;17.50;;;5.85;;
42168;SDS011;27838;43.858;25.974;2023-10-13T11:06:55;23.17;;;5.72;;
42168;SDS011;27838;43.858;25.974;2023-10-13T11:09:30;16.98;;;5.72;;
42168;SDS011;27838;43.858;25.974;2023-10-13T11:14:39;14.55;;;6.25;;
42168;SDS011;27838;43.858;25.974;2023-10-13T11:17:05;16.40;;;5.65;;
42168;SDS011;27838;43.858;25.974;2023-10-13T11:19:40;17.13;;;6.60;;
42168;SDS011;27838;43.858;25.974;2023-10-13T11:25:20;19.98;;;5.40;;
42168;SDS011;27838;43.858;25.974;2023-10-13T11:27:51;31.02;;;11.88;;
42168;SDS011;27838;43.858;25.974;2023-10-13T11:30:25;19.42;;;7.43;;
42168;SDS011;27838;43.858;25.974;2023-10-13T11:33:00;20.38;;;7.05;;
42168;SDS011;27838;43.858;25.974;2023-10-13T11:35:31;16.88;;;8.52;;
42168;SDS011;27838;43.858;25.974;2023-10-13T11:40:39;28.35;;;15.48;;
42168;SDS011;27838;43.858;25.974;2023-10-13T11:43:35;17.67;;;9.75;;
42168;SDS011;27838;43.858;25.974;2023-10-13T11:46:26;25.25;;;11.63;;
42168;SDS011;27838;43.858;25.974;2023-10-13T11:49:11;29.23;;;11.05;;
42168;SDS011;27838;43.858;25.974;2023-10-13T11:51:47;17.80;;;7.88;;
42168;SDS011;27838;43.858;25.974;2023-10-13T11:54:15;15.45;;;7.80;;
42168;SDS011;27838;43.858;25.974;2023-10-13T11:56:46;19.77;;;7.80;;
42168;SDS011;27838;43.858;25.974;2023-10-13T11:59:13;22.83;;;8.57;;
42168;SDS011;27838;43.858;25.974;2023-10-13T12:01:48;12.57;;;6.80;;
42168;SDS011;27838;43.858;25.974;2023-10-13T12:04:33;12.10;;;6.70;;
42168;SDS011;27838;43.858;25.974;2023-10-13T12:07:06;29.90;;;14.07;;
42168;SDS011;27838;43.858;25.974;2023-10-13T12:09:45;11.02;;;6.38;;
42168;SDS011;27838;43.858;25.974;2023-10-13T12:12:31;20.63;;;6.60;;
42168;SDS011;27838;43.858;25.974;2023-10-13T12:15:05;20.25;;;8.73;;
42168;SDS011;27838;43.858;25.974;2023-10-13T12:17:39;37.42;;;10.35;;
42168;SDS011;27838;43.858;25.974;2023-10-13T12:20:09;18.02;;;8.48;;
42168;SDS011;27838;43.858;25.974;2023-10-13T12:22:43;19.02;;;7.75;;
42168;SDS011;27838;43.858;25.974;2023-10-13T12:25:19;14.40;;;6.32;;
42168;SDS011;27838;43.858;25.974;2023-10-13T12:27:51;18.88;;;6.57;;
42168;SDS011;27838;43.858;25.974;2023-10-13T12:33:01;15.40;;;5.63;;
42168;SDS011;27838;43.858;25.974;2023-10-13T12:35:34;19.60;;;6.10;;
42168;SDS011;27838;43.858;25.974;2023-10-13T12:38:10;15.32;;;7.38;;
42168;SDS011;27838;43.858;25.974;2023-10-13T12:41:04;19.70;;;8.18;;
42168;SDS011;27838;43.858;25.974;2023-10-13T12:43:48;17.48;;;6.43;;
42168;SDS011;27838;43.858;25.974;2023-10-13T12:46:31;15.88;;;8.23;;
42168;SDS011;27838;43.858;25.974;2023-10-13T12:49:15;15.30;;;7.47;;
42168;SDS011;27838;43.858;25.974;2023-10-13T12:52:02;20.60;;;7.25;;
42168;SDS011;27838;43.858;25.974;2023-10-13T12:54:28;19.75;;;7.85;;
42168;SDS011;27838;43.858;25.974;2023-10-13T12:57:00;31.30;;;8.13;;
42168;SDS011;27838;43.858;25.974;2023-10-13T12:59:27;16.38;;;7.05;;
42168;SDS011;27838;43.858;25.974;2023-10-13T13:01:54;17.23;;;7.03;;
42168;SDS011;27838;43.858;25.974;2023-10-13T13:04:20;27.25;;;6.90;;
42168;SDS011;27838;43.858;25.974;2023-10-13T13:06:48;18.08;;;6.45;;
42168;SDS011;27838;43.858;25.974;2023-10-13T13:09:15;19.38;;;6.85;;
42168;SDS011;27838;43.858;25.974;2023-10-13T13:11:51;25.27;;;7.35;;
42168;SDS011;27838;43.858;25.974;2023-10-13T13:14:22;19.88;;;7.10;;
42168;SDS011;27838;43.858;25.974;2023-10-13T13:16:54;17.95;;;7.53;;
42168;SDS011;27838;43.858;25.974;2023-10-13T13:19:26;22.73;;;6.63;;
42168;SDS011;27838;43.858;25.974;2023-10-13T13:21:52;19.35;;;6.72;;
42168;SDS011;27838;43.858;25.974;2023-10-13T13:24:19;14.05;;;6.20;;
42168;SDS011;27838;43.858;25.974;2023-10-13T13:26:45;18.00;;;7.30;;
42168;SDS011;27838;43.858;25.974;2023-10-13T13:29:13;18.17;;;7.95;;
42168;SDS011;27838;43.858;25.974;2023-10-13T13:31:40;25.48;;;6.90;;
42168;SDS011;27838;43.858;25.974;2023-10-13T13:34:08;16.70;;;7.32;;
42168;SDS011;27838;43.858;25.974;2023-10-13T13:36:37;22.63;;;6.57;;
42168;SDS011;27838;43.858;25.974;2023-10-13T13:39:09;18.48;;;6.88;;
42168;SDS011;27838;43.858;25.974;2023-10-13T13:41:36;21.65;;;7.53;;
42168;SDS011;27838;43.858;25.974;2023-10-13T13:44:03;15.68;;;7.38;;
42168;SDS011;27838;43.858;25.974;2023-10-13T13:46:38;15.82;;;7.38;;
42168;SDS011;27838;43.858;25.974;2023-10-13T13:49:07;30.58;;;11.05;;
42168;SDS011;27838;43.858;25.974;2023-10-13T13:51:43;20.10;;;9.20;;
42168;SDS011;27838;43.858;25.974;2023-10-13T13:54:16;23.25;;;8.35;;
42168;SDS011;27838;43.858;25.974;2023-10-13T13:56:43;19.98;;;12.45;;
42168;SDS011;27838;43.858;25.974;2023-10-13T13:59:10;27.35;;;9.68;;
42168;SDS011;27838;43.858;25.974;2023-10-13T14:01:40;30.53;;;7.63;;
42168;SDS011;27838;43.858;25.974;2023-10-13T14:04:09;21.88;;;10.00;;
42168;SDS011;27838;43.858;25.974;2023-10-13T14:06:39;30.42;;;12.80;;
42168;SDS011;27838;43.858;25.974;2023-10-13T14:09:05;23.15;;;8.95;;
42168;SDS011;27838;43.858;25.974;2023-10-13T14:11:40;23.58;;;8.90;;
42168;SDS011;27838;43.858;25.974;2023-10-13T14:14:21;41.15;;;16.88;;
42168;SDS011;27838;43.858;25.974;2023-10-13T14:16:58;45.65;;;12.68;;
42168;SDS011;27838;43.858;25.974;2023-10-13T14:19:31;39.85;;;13.20;;
42168;SDS011;27838;43.858;25.974;2023-10-13T14:21:59;34.42;;;9.88;;
42168;SDS011;27838;43.858;25.974;2023-10-13T14:24:31;34.65;;;9.55;;
42168;SDS011;27838;43.858;25.974;2023-10-13T14:27:02;27.75;;;9.18;;
42168;SDS011;27838;43.858;25.974;2023-10-13T14:29:34;30.38;;;14.20;;
42168;SDS011;27838;43.858;25.974;2023-10-13T14:32:05;25.30;;;10.07;;
42168;SDS011;27838;43.858;25.974;2023-10-13T14:34:38;30.88;;;10.85;;
42168;SDS011;27838;43.858;25.974;2023-10-13T14:37:08;44.28;;;11.95;;
42168;SDS011;27838;43.858;25.974;2023-10-13T14:39:37;49.13;;;11.50;;
42168;SDS011;27838;43.858;25.974;2023-10-13T14:42:05;42.92;;;11.65;;
42168;SDS011;27838;43.858;25.974;2023-10-13T14:44:34;52.05;;;12.93;;
42168;SDS011;27838;43.858;25.974;2023-10-13T14:47:02;47.38;;;14.25;;
42168;SDS011;27838;43.858;25.974;2023-10-13T14:49:30;27.15;;;9.68;;
42168;SDS011;27838;43.858;25.974;2023-10-13T14:51:57;37.33;;;19.25;;
42168;SDS011;27838;43.858;25.974;2023-10-13T14:54:24;36.20;;;12.80;;
42168;SDS011;27838;43.858;25.974;2023-10-13T14:57:01;58.08;;;24.98;;
42168;SDS011;27838;43.858;25.974;2023-10-13T14:59:29;78.63;;;20.67;;
42168;SDS011;27838;43.858;25.974;2023-10-13T15:01:58;41.53;;;17.58;;
42168;SDS011;27838;43.858;25.974;2023-10-13T15:04:27;43.92;;;21.13;;
42168;SDS011;27838;43.858;25.974;2023-10-13T15:06:57;50.90;;;15.10;;
42168;SDS011;27838;43.858;25.974;2023-10-13T15:09:26;53.80;;;13.25;;
42168;SDS011;27838;43.858;25.974;2023-10-13T15:11:54;43.83;;;12.27;;
42168;SDS011;27838;43.858;25.974;2023-10-13T15:14:20;39.88;;;12.15;;
42168;SDS011;27838;43.858;25.974;2023-10-13T15:16:48;43.25;;;18.10;;
42168;SDS011;27838;43.858;25.974;2023-10-13T15:19:17;34.47;;;11.77;;
42168;SDS011;27838;43.858;25.974;2023-10-13T15:21:44;44.38;;;12.45;;
42168;SDS011;27838;43.858;25.974;2023-10-13T15:24:14;35.05;;;12.73;;
42168;SDS011;27838;43.858;25.974;2023-10-13T15:26:42;35.08;;;12.32;;
42168;SDS011;27838;43.858;25.974;2023-10-13T15:29:16;46.35;;;11.65;;